Airfield :
LOGIN :

Register | Disclaimer

   EN    FR    IT 

 










Legend :    VFR   Marginal VFR   IFR   Intensive IFR   Very Intensive IFR
Visi :
Ceiling :
>= 8 km
>= 3000ft
5 to 8 km
1000 to 3000 ft
1500m to 5 km
500 to 1000 ft
800 to 1500m
200 to 500 ft
< 800m
< 200 ft
Symbols :   Thunderstorms  Fog  Heavy snow  Heavy precipitations  Wind > 20 kt
SIGMETs :     Misc.  Thunderstorms  Icing  Turbulence  Mountain Waves  Volcanic Ashes







- Airport Elevation : 794 ft


LKCV - Čáslav Air Base

CURRENT METAR :
  • 150642Z 31006KT 9000 SCT026 OVC030 M02/M03 Q1025 RMK BLU

EXPIRED METARs :
  • 150600Z 32005KT 9999 OVC032 M02/M04 Q1025 NOSIG RMK BLU BLU
  • 150500Z 31008KT 9999 BKN029 M03/M04 Q1024 NOSIG
  • 150400Z 32002KT 9999 OVC029 M02/M04 Q1025 NOSIG RMK BLU BLU

TAF TAF LKCV
Valid from the 15 at 06:00 until the 16 at 06:00 UTC


150500Z 1506/1606 29005KT 9999 OVC030
PROB40
TEMPO 1506/1513 4500 -SN OVC020
TEMPO 1513/1517 02007KT
BECMG 1518/1521 VRB02KT CAVOK
TEMPO 1600/1606 6000 BKN030
TEMPO 1603/1606 4000 BR MIFG
No reported NOTAMs for that airfield.



MET'MAP, your aeronautical weather chart ! - Copyright ORBIFLY December 2007 - Disclaimer

ORBIFLY MET'MAP TEAM :

Programming & Development : Alexandra Zaïnal
Concept & Development : Baudouin d'Aumeries
Co-Development & Prog : Marc-Olivier Méhu
Technical & hardware support : Manuel Goepfert

Contact : metmap@orbifly.com




SOURCES & CREDITS :

   NOAA